sensor_id;sensor_type;location;lat;lon;timestamp;pressure;altitude;pressure_sealevel;temperature;humidity
61292;BME280;47165;42.664;23.368;2023-06-26T00:01:14;94815.94;;;22.43;68.02
61292;BME280;47165;42.664;23.368;2023-06-26T00:03:39;94807.28;;;22.49;67.97
61292;BME280;47165;42.664;23.368;2023-06-26T00:06:05;94807.16;;;22.67;67.33
61292;BME280;47165;42.664;23.368;2023-06-26T00:08:30;94811.66;;;22.75;67.14
61292;BME280;47165;42.664;23.368;2023-06-26T00:10:56;94814.28;;;22.91;66.27
61292;BME280;47165;42.664;23.368;2023-06-26T00:13:23;94808.47;;;22.87;66.32
61292;BME280;47165;42.664;23.368;2023-06-26T00:15:48;94821.09;;;22.94;65.98
61292;BME280;47165;42.664;23.368;2023-06-26T00:18:14;94807.44;;;22.88;65.99
61292;BME280;47165;42.664;23.368;2023-06-26T00:20:39;94808.47;;;22.46;67.85
61292;BME280;47165;42.664;23.368;2023-06-26T00:23:05;94808.78;;;22.35;68.27
61292;BME280;47165;42.664;23.368;2023-06-26T00:25:33;94803.81;;;22.57;67.61
61292;BME280;47165;42.664;23.368;2023-06-26T00:27:58;94800.50;;;22.63;67.58
61292;BME280;47165;42.664;23.368;2023-06-26T00:30:24;94806.63;;;22.39;68.27
61292;BME280;47165;42.664;23.368;2023-06-26T00:32:49;94798.97;;;22.27;68.47
61292;BME280;47165;42.664;23.368;2023-06-26T00:35:16;94807.28;;;22.33;68.60
61292;BME280;47165;42.664;23.368;2023-06-26T00:37:41;94802.78;;;22.41;68.22
61292;BME280;47165;42.664;23.368;2023-06-26T00:40:07;94790.81;;;22.45;67.80
61292;BME280;47165;42.664;23.368;2023-06-26T00:42:33;94790.56;;;21.98;69.84
61292;BME280;47165;42.664;23.368;2023-06-26T00:44:58;94797.63;;;22.23;69.11
61292;BME280;47165;42.664;23.368;2023-06-26T00:47:24;94799.59;;;22.13;69.21
61292;BME280;47165;42.664;23.368;2023-06-26T00:49:50;94792.59;;;21.61;71.60
61292;BME280;47165;42.664;23.368;2023-06-26T00:52:16;94789.75;;;21.97;70.09
61292;BME280;47165;42.664;23.368;2023-06-26T00:54:42;94783.09;;;22.01;69.74
61292;BME280;47165;42.664;23.368;2023-06-26T00:57:07;94785.03;;;21.75;71.16
61292;BME280;47165;42.664;23.368;2023-06-26T00:59:34;94790.03;;;21.94;70.54
61292;BME280;47165;42.664;23.368;2023-06-26T01:01:59;94779.47;;;21.52;71.70
61292;BME280;47165;42.664;23.368;2023-06-26T01:04:25;94779.50;;;21.60;71.86
61292;BME280;47165;42.664;23.368;2023-06-26T01:06:54;94791.38;;;21.98;70.28
61292;BME280;47165;42.664;23.368;2023-06-26T01:09:21;94782.25;;;21.93;70.22
61292;BME280;47165;42.664;23.368;2023-06-26T01:11:47;94772.91;;;21.80;70.62
61292;BME280;47165;42.664;23.368;2023-06-26T01:14:13;94758.84;;;21.45;71.93
61292;BME280;47165;42.664;23.368;2023-06-26T01:16:40;94783.06;;;21.85;70.42
61292;BME280;47165;42.664;23.368;2023-06-26T01:19:11;94766.13;;;22.02;69.82
61292;BME280;47165;42.664;23.368;2023-06-26T01:21:42;94765.31;;;22.02;69.48
61292;BME280;47165;42.664;23.368;2023-06-26T01:24:18;94761.16;;;21.99;69.82
61292;BME280;47165;42.664;23.368;2023-06-26T01:26:49;94766.44;;;21.83;70.44
61292;BME280;47165;42.664;23.368;2023-06-26T01:29:16;94771.28;;;21.96;69.94
61292;BME280;47165;42.664;23.368;2023-06-26T01:31:43;94759.81;;;21.95;70.08
61292;BME280;47165;42.664;23.368;2023-06-26T01:34:09;94759.31;;;22.00;69.60
61292;BME280;47165;42.664;23.368;2023-06-26T01:36:35;94756.31;;;21.86;69.85
61292;BME280;47165;42.664;23.368;2023-06-26T01:39:02;94753.81;;;21.85;69.92
61292;BME280;47165;42.664;23.368;2023-06-26T01:41:27;94755.28;;;21.79;70.35
61292;BME280;47165;42.664;23.368;2023-06-26T01:44:03;94748.03;;;21.98;69.43
61292;BME280;47165;42.664;23.368;2023-06-26T01:57:09;94751.03;;;21.95;68.71
61292;BME280;47165;42.664;23.368;2023-06-26T01:59:37;94747.50;;;21.94;68.96
61292;BME280;47165;42.664;23.368;2023-06-26T02:02:06;94750.38;;;22.01;68.65
61292;BME280;47165;42.664;23.368;2023-06-26T02:04:32;94733.75;;;21.99;68.28
61292;BME280;47165;42.664;23.368;2023-06-26T02:06:57;94743.38;;;22.08;68.01
61292;BME280;47165;42.664;23.368;2023-06-26T02:09:23;94759.03;;;22.19;67.56
61292;BME280;47165;42.664;23.368;2023-06-26T02:11:48;94743.06;;;22.03;68.03
61292;BME280;47165;42.664;23.368;2023-06-26T02:14:14;94752.84;;;22.10;67.63
61292;BME280;47165;42.664;23.368;2023-06-26T02:16:39;94753.19;;;21.99;68.12
61292;BME280;47165;42.664;23.368;2023-06-26T02:19:04;94762.59;;;21.77;69.07
61292;BME280;47165;42.664;23.368;2023-06-26T02:21:30;94758.09;;;21.78;68.96
61292;BME280;47165;42.664;23.368;2023-06-26T02:23:55;94756.94;;;21.72;69.20
61292;BME280;47165;42.664;23.368;2023-06-26T02:26:21;94771.38;;;21.69;69.00
61292;BME280;47165;42.664;23.368;2023-06-26T02:28:46;94758.06;;;21.27;70.99
61292;BME280;47165;42.664;23.368;2023-06-26T02:31:11;94749.88;;;21.46;70.09
61292;BME280;47165;42.664;23.368;2023-06-26T02:33:37;94760.91;;;21.60;69.60
61292;BME280;47165;42.664;23.368;2023-06-26T02:36:02;94756.88;;;21.21;71.73
61292;BME280;47165;42.664;23.368;2023-06-26T02:38:28;94757.63;;;21.40;70.64
61292;BME280;47165;42.664;23.368;2023-06-26T02:40:53;94761.00;;;21.16;71.47
61292;BME280;47165;42.664;23.368;2023-06-26T02:43:19;94758.44;;;21.40;70.79
61292;BME280;47165;42.664;23.368;2023-06-26T02:45:44;94760.28;;;21.05;71.86
61292;BME280;47165;42.664;23.368;2023-06-26T02:48:09;94757.94;;;21.37;71.04
61292;BME280;47165;42.664;23.368;2023-06-26T02:50:35;94757.19;;;21.53;70.54
61292;BME280;47165;42.664;23.368;2023-06-26T02:53:00;94758.41;;;21.66;69.87
61292;BME280;47165;42.664;23.368;2023-06-26T02:55:26;94764.72;;;21.65;70.00
61292;BME280;47165;42.664;23.368;2023-06-26T02:57:52;94763.84;;;21.57;70.31
61292;BME280;47165;42.664;23.368;2023-06-26T03:00:17;94751.78;;;21.36;70.79
61292;BME280;47165;42.664;23.368;2023-06-26T03:02:43;94755.94;;;21.39;70.78
61292;BME280;47165;42.664;23.368;2023-06-26T03:05:08;94758.00;;;21.45;70.60
61292;BME280;47165;42.664;23.368;2023-06-26T03:07:34;94758.91;;;21.62;69.65
61292;BME280;47165;42.664;23.368;2023-06-26T03:09:59;94761.22;;;21.30;70.83
61292;BME280;47165;42.664;23.368;2023-06-26T03:12:25;94762.22;;;21.56;69.64
61292;BME280;47165;42.664;23.368;2023-06-26T03:14:51;94765.00;;;21.20;70.97
61292;BME280;47165;42.664;23.368;2023-06-26T03:17:16;94765.47;;;21.15;71.30
61292;BME280;47165;42.664;23.368;2023-06-26T03:19:41;94759.38;;;21.23;70.88
61292;BME280;47165;42.664;23.368;2023-06-26T03:22:07;94768.88;;;20.99;71.45
61292;BME280;47165;42.664;23.368;2023-06-26T03:24:33;94752.44;;;21.30;70.15
61292;BME280;47165;42.664;23.368;2023-06-26T03:26:59;94761.38;;;21.21;70.45
61292;BME280;47165;42.664;23.368;2023-06-26T03:29:25;94759.06;;;21.26;70.31
61292;BME280;47165;42.664;23.368;2023-06-26T03:31:50;94764.47;;;21.42;69.49
61292;BME280;47165;42.664;23.368;2023-06-26T03:34:15;94767.06;;;21.34;69.74
61292;BME280;47165;42.664;23.368;2023-06-26T03:36:41;94764.88;;;21.56;69.09
61292;BME280;47165;42.664;23.368;2023-06-26T03:39:06;94762.88;;;21.58;69.06
61292;BME280;47165;42.664;23.368;2023-06-26T03:41:32;94767.38;;;21.31;70.28
61292;BME280;47165;42.664;23.368;2023-06-26T03:43:57;94776.25;;;20.87;72.18
61292;BME280;47165;42.664;23.368;2023-06-26T03:46:25;94771.50;;;21.25;70.50
61292;BME280;47165;42.664;23.368;2023-06-26T03:48:50;94764.66;;;21.15;70.65
61292;BME280;47165;42.664;23.368;2023-06-26T03:51:16;94770.94;;;21.14;70.65
61292;BME280;47165;42.664;23.368;2023-06-26T03:53:41;94761.47;;;21.11;70.71
61292;BME280;47165;42.664;23.368;2023-06-26T03:56:07;94758.59;;;21.39;69.96
61292;BME280;47165;42.664;23.368;2023-06-26T03:58:32;94762.38;;;21.28;69.77
61292;BME280;47165;42.664;23.368;2023-06-26T04:00:57;94762.00;;;21.15;70.09
61292;BME280;47165;42.664;23.368;2023-06-26T04:03:23;94756.56;;;21.24;70.26
61292;BME280;47165;42.664;23.368;2023-06-26T04:05:49;94763.22;;;20.94;71.49
61292;BME280;47165;42.664;23.368;2023-06-26T04:08:15;94753.66;;;21.09;71.09
61292;BME280;47165;42.664;23.368;2023-06-26T04:10:40;94752.47;;;21.38;70.17
61292;BME280;47165;42.664;23.368;2023-06-26T04:13:05;94760.13;;;21.41;69.74
61292;BME280;47165;42.664;23.368;2023-06-26T04:15:31;94767.44;;;21.39;69.65
61292;BME280;47165;42.664;23.368;2023-06-26T04:17:56;94763.34;;;21.19;70.28
61292;BME280;47165;42.664;23.368;2023-06-26T04:20:22;94766.00;;;21.19;70.51
61292;BME280;47165;42.664;23.368;2023-06-26T04:22:47;94752.63;;;21.37;69.32
61292;BME280;47165;42.664;23.368;2023-06-26T04:25:12;94759.75;;;21.62;68.41
61292;BME280;47165;42.664;23.368;2023-06-26T04:27:38;94766.91;;;21.70;67.93
61292;BME280;47165;42.664;23.368;2023-06-26T04:30:04;94761.25;;;21.73;67.77
61292;BME280;47165;42.664;23.368;2023-06-26T04:32:30;94780.56;;;21.92;67.66
61292;BME280;47165;42.664;23.368;2023-06-26T04:34:56;94772.88;;;21.64;67.95
61292;BME280;47165;42.664;23.368;2023-06-26T04:37:22;94764.25;;;21.36;69.39
61292;BME280;47165;42.664;23.368;2023-06-26T04:39:47;94776.84;;;21.60;68.27
61292;BME280;47165;42.664;23.368;2023-06-26T04:42:13;94767.59;;;21.72;67.71
61292;BME280;47165;42.664;23.368;2023-06-26T04:44:38;94775.56;;;21.72;67.75
61292;BME280;47165;42.664;23.368;2023-06-26T04:47:06;94769.75;;;21.77;67.09
61292;BME280;47165;42.664;23.368;2023-06-26T04:49:31;94778.50;;;21.61;68.12
61292;BME280;47165;42.664;23.368;2023-06-26T04:51:57;94769.63;;;21.44;68.68
61292;BME280;47165;42.664;23.368;2023-06-26T04:54:25;94773.69;;;21.30;69.46
61292;BME280;47165;42.664;23.368;2023-06-26T04:56:51;94777.44;;;21.45;69.00
61292;BME280;47165;42.664;23.368;2023-06-26T04:59:16;94777.25;;;21.47;69.17
61292;BME280;47165;42.664;23.368;2023-06-26T05:01:41;94790.09;;;21.25;69.98
61292;BME280;47165;42.664;23.368;2023-06-26T05:04:07;94786.19;;;21.72;68.26
61292;BME280;47165;42.664;23.368;2023-06-26T05:06:33;94785.84;;;21.75;68.13
61292;BME280;47165;42.664;23.368;2023-06-26T05:08:58;94766.50;;;21.48;68.53
61292;BME280;47165;42.664;23.368;2023-06-26T05:11:24;94799.59;;;21.36;69.51
61292;BME280;47165;42.664;23.368;2023-06-26T05:13:50;94785.09;;;21.48;69.17
61292;BME280;47165;42.664;23.368;2023-06-26T05:16:15;94790.16;;;21.68;68.58
61292;BME280;47165;42.664;23.368;2023-06-26T05:18:41;94797.16;;;21.85;68.01
61292;BME280;47165;42.664;23.368;2023-06-26T05:21:06;94794.06;;;21.21;71.42
61292;BME280;47165;42.664;23.368;2023-06-26T05:23:33;94799.41;;;22.23;67.36
61292;BME280;47165;42.664;23.368;2023-06-26T05:26:00;94797.66;;;22.89;64.36
61292;BME280;47165;42.664;23.368;2023-06-26T05:28:27;94792.44;;;23.28;62.93
61292;BME280;47165;42.664;23.368;2023-06-26T05:30:54;94794.09;;;23.85;61.05
61292;BME280;47165;42.664;23.368;2023-06-26T05:33:21;94786.41;;;24.45;58.98
61292;BME280;47165;42.664;23.368;2023-06-26T05:35:48;94789.69;;;24.01;59.16
61292;BME280;47165;42.664;23.368;2023-06-26T05:38:14;94794.91;;;24.17;58.74
61292;BME280;47165;42.664;23.368;2023-06-26T05:40:40;94793.66;;;24.59;57.76
61292;BME280;47165;42.664;23.368;2023-06-26T05:43:07;94792.88;;;24.74;56.77
61292;BME280;47165;42.664;23.368;2023-06-26T05:45:32;94792.84;;;24.27;58.20
61292;BME280;47165;42.664;23.368;2023-06-26T05:47:58;94786.31;;;24.61;57.66
61292;BME280;47165;42.664;23.368;2023-06-26T05:50:24;94795.09;;;24.70;56.63
61292;BME280;47165;42.664;23.368;2023-06-26T05:52:51;94797.84;;;23.99;58.42
61292;BME280;47165;42.664;23.368;2023-06-26T05:55:17;94790.22;;;23.96;58.40
61292;BME280;47165;42.664;23.368;2023-06-26T05:57:43;94794.34;;;23.59;59.83
61292;BME280;47165;42.664;23.368;2023-06-26T06:00:08;94797.94;;;23.75;59.16
61292;BME280;47165;42.664;23.368;2023-06-26T06:02:37;94805.00;;;23.59;59.33
61292;BME280;47165;42.664;23.368;2023-06-26T06:05:03;94786.47;;;23.66;59.22
61292;BME280;47165;42.664;23.368;2023-06-26T06:07:29;94799.59;;;23.84;58.94
61292;BME280;47165;42.664;23.368;2023-06-26T06:09:54;94797.59;;;24.17;57.46
61292;BME280;47165;42.664;23.368;2023-06-26T06:12:20;94809.22;;;24.56;57.17
61292;BME280;47165;42.664;23.368;2023-06-26T06:17:10;94793.72;;;24.20;56.76
61292;BME280;47165;42.664;23.368;2023-06-26T06:19:36;94798.72;;;24.23;56.96
61292;BME280;47165;42.664;23.368;2023-06-26T06:22:01;94795.06;;;24.47;56.60
61292;BME280;47165;42.664;23.368;2023-06-26T06:24:27;94797.88;;;24.54;56.77
61292;BME280;47165;42.664;23.368;2023-06-26T06:26:52;94800.25;;;24.40;57.05
61292;BME280;47165;42.664;23.368;2023-06-26T06:29:18;94801.56;;;24.21;57.76
61292;BME280;47165;42.664;23.368;2023-06-26T06:31:44;94790.88;;;24.21;57.82
61292;BME280;47165;42.664;23.368;2023-06-26T06:34:10;94783.53;;;24.23;57.79
61292;BME280;47165;42.664;23.368;2023-06-26T06:36:35;94794.31;;;24.07;58.60
61292;BME280;47165;42.664;23.368;2023-06-26T06:39:00;94793.78;;;23.80;58.83
61292;BME280;47165;42.664;23.368;2023-06-26T06:41:26;94795.00;;;23.61;60.33
61292;BME280;47165;42.664;23.368;2023-06-26T06:43:51;94789.84;;;23.60;59.83
61292;BME280;47165;42.664;23.368;2023-06-26T06:46:17;94788.34;;;23.57;60.43
61292;BME280;47165;42.664;23.368;2023-06-26T06:48:42;94789.28;;;23.81;59.52
61292;BME280;47165;42.664;23.368;2023-06-26T06:51:07;94783.94;;;23.81;58.83
61292;BME280;47165;42.664;23.368;2023-06-26T06:53:33;94790.72;;;23.44;59.21
61292;BME280;47165;42.664;23.368;2023-06-26T06:55:58;94788.84;;;23.61;59.20
61292;BME280;47165;42.664;23.368;2023-06-26T06:58:24;94777.50;;;23.67;59.15
61292;BME280;47165;42.664;23.368;2023-06-26T07:00:49;94773.69;;;23.61;59.21
61292;BME280;47165;42.664;23.368;2023-06-26T07:03:17;94784.47;;;23.68;59.57
61292;BME280;47165;42.664;23.368;2023-06-26T07:05:43;94778.75;;;23.87;58.77
61292;BME280;47165;42.664;23.368;2023-06-26T07:08:08;94771.75;;;23.86;58.43
61292;BME280;47165;42.664;23.368;2023-06-26T07:10:34;94775.44;;;23.85;58.12
61292;BME280;47165;42.664;23.368;2023-06-26T07:12:59;94772.84;;;24.00;57.76
61292;BME280;47165;42.664;23.368;2023-06-26T07:15:24;94782.13;;;24.13;57.81
61292;BME280;47165;42.664;23.368;2023-06-26T07:17:50;94764.47;;;24.03;57.46
61292;BME280;47165;42.664;23.368;2023-06-26T07:20:15;94774.69;;;24.00;56.77
61292;BME280;47165;42.664;23.368;2023-06-26T07:22:42;94779.13;;;24.07;56.06
61292;BME280;47165;42.664;23.368;2023-06-26T07:25:08;94788.53;;;23.95;56.66
61292;BME280;47165;42.664;23.368;2023-06-26T07:27:40;94780.13;;;23.75;57.38
61292;BME280;47165;42.664;23.368;2023-06-26T07:30:07;94773.94;;;24.14;57.07
61292;BME280;47165;42.664;23.368;2023-06-26T07:32:35;94775.47;;;24.32;56.17
61292;BME280;47165;42.664;23.368;2023-06-26T07:35:01;94775.19;;;24.26;55.11
61292;BME280;47165;42.664;23.368;2023-06-26T07:37:26;94779.00;;;24.01;56.59
61292;BME280;47165;42.664;23.368;2023-06-26T07:39:52;94768.81;;;24.04;55.26
61292;BME280;47165;42.664;23.368;2023-06-26T07:42:17;94763.22;;;24.22;54.64
61292;BME280;47165;42.664;23.368;2023-06-26T07:44:43;94769.22;;;24.24;54.91
61292;BME280;47165;42.664;23.368;2023-06-26T07:47:09;94771.22;;;24.22;55.39
61292;BME280;47165;42.664;23.368;2023-06-26T07:49:34;94780.53;;;24.26;54.54
61292;BME280;47165;42.664;23.368;2023-06-26T07:52:00;94768.25;;;24.17;54.95
61292;BME280;47165;42.664;23.368;2023-06-26T07:54:26;94773.72;;;24.47;53.58
61292;BME280;47165;42.664;23.368;2023-06-26T07:56:56;94771.09;;;24.39;52.98
61292;BME280;47165;42.664;23.368;2023-06-26T07:59:22;94773.47;;;24.57;53.15
61292;BME280;47165;42.664;23.368;2023-06-26T08:01:49;94773.69;;;24.55;51.65
61292;BME280;47165;42.664;23.368;2023-06-26T08:04:15;94780.13;;;24.84;51.57
61292;BME280;47165;42.664;23.368;2023-06-26T08:06:41;94775.13;;;24.81;51.16
61292;BME280;47165;42.664;23.368;2023-06-26T08:09:07;94770.00;;;24.94;50.13
61292;BME280;47165;42.664;23.368;2023-06-26T08:11:35;94773.75;;;24.85;50.53
61292;BME280;47165;42.664;23.368;2023-06-26T08:14:00;94760.53;;;25.06;50.49
61292;BME280;47165;42.664;23.368;2023-06-26T08:16:26;94764.78;;;25.16;51.15
61292;BME280;47165;42.664;23.368;2023-06-26T08:18:51;94767.44;;;25.01;50.77
61292;BME280;47165;42.664;23.368;2023-06-26T08:21:17;94768.41;;;25.23;50.33
61292;BME280;47165;42.664;23.368;2023-06-26T08:23:42;94757.00;;;25.29;49.81
61292;BME280;47165;42.664;23.368;2023-06-26T08:26:08;94767.22;;;25.40;49.66
61292;BME280;47165;42.664;23.368;2023-06-26T08:28:33;94774.97;;;25.35;49.59
61292;BME280;47165;42.664;23.368;2023-06-26T08:30:58;94774.66;;;25.30;49.66
61292;BME280;47165;42.664;23.368;2023-06-26T08:33:24;94774.63;;;25.00;49.47
61292;BME280;47165;42.664;23.368;2023-06-26T08:35:50;94772.03;;;24.92;47.81
61292;BME280;47165;42.664;23.368;2023-06-26T08:38:15;94769.63;;;24.97;48.85
61292;BME280;47165;42.664;23.368;2023-06-26T08:40:41;94765.09;;;25.21;48.43
61292;BME280;47165;42.664;23.368;2023-06-26T08:43:06;94769.78;;;25.34;48.47
61292;BME280;47165;42.664;23.368;2023-06-26T08:45:32;94773.94;;;25.36;48.78
61292;BME280;47165;42.664;23.368;2023-06-26T08:47:59;94771.34;;;25.28;49.52
61292;BME280;47165;42.664;23.368;2023-06-26T08:50:28;94760.78;;;24.82;49.71
61292;BME280;47165;42.664;23.368;2023-06-26T08:55:23;94767.59;;;25.37;49.30
61292;BME280;47165;42.664;23.368;2023-06-26T08:57:51;94759.81;;;25.57;47.82
61292;BME280;47165;42.664;23.368;2023-06-26T09:00:17;94776.97;;;25.93;47.57
61292;BME280;47165;42.664;23.368;2023-06-26T09:02:43;94763.69;;;25.55;47.18
61292;BME280;47165;42.664;23.368;2023-06-26T09:05:09;94762.69;;;25.26;46.85
61292;BME280;47165;42.664;23.368;2023-06-26T09:07:35;94772.59;;;25.02;48.74
61292;BME280;47165;42.664;23.368;2023-06-26T09:10:00;94771.41;;;25.20;48.48
61292;BME280;47165;42.664;23.368;2023-06-26T09:12:29;94767.28;;;25.32;48.18
61292;BME280;47165;42.664;23.368;2023-06-26T09:14:56;94758.19;;;25.41;47.57
61292;BME280;47165;42.664;23.368;2023-06-26T09:17:26;94742.78;;;25.58;48.42
61292;BME280;47165;42.664;23.368;2023-06-26T09:19:54;94749.00;;;25.80;46.51
61292;BME280;47165;42.664;23.368;2023-06-26T09:22:19;94768.19;;;25.99;47.66
61292;BME280;47165;42.664;23.368;2023-06-26T09:24:45;94762.09;;;26.05;45.48
61292;BME280;47165;42.664;23.368;2023-06-26T09:27:11;94761.56;;;25.95;46.21
61292;BME280;47165;42.664;23.368;2023-06-26T09:29:36;94757.69;;;25.67;46.68
61292;BME280;47165;42.664;23.368;2023-06-26T09:32:02;94762.38;;;25.80;46.67
61292;BME280;47165;42.664;23.368;2023-06-26T09:34:32;94757.69;;;25.82;46.35
61292;BME280;47165;42.664;23.368;2023-06-26T09:36:58;94761.28;;;25.75;47.36
61292;BME280;47165;42.664;23.368;2023-06-26T09:39:24;94772.34;;;25.86;46.32
61292;BME280;47165;42.664;23.368;2023-06-26T09:41:50;94757.03;;;25.65;46.95
61292;BME280;47165;42.664;23.368;2023-06-26T09:44:15;94754.94;;;25.91;46.41
61292;BME280;47165;42.664;23.368;2023-06-26T09:46:44;94753.78;;;26.00;46.61
61292;BME280;47165;42.664;23.368;2023-06-26T09:49:11;94747.56;;;26.14;45.20
61292;BME280;47165;42.664;23.368;2023-06-26T09:51:38;94762.28;;;26.03;45.75
61292;BME280;47165;42.664;23.368;2023-06-26T09:54:05;94761.00;;;25.99;45.68
61292;BME280;47165;42.664;23.368;2023-06-26T09:56:32;94763.09;;;25.89;44.98
61292;BME280;47165;42.664;23.368;2023-06-26T09:58:59;94761.81;;;26.00;45.12
61292;BME280;47165;42.664;23.368;2023-06-26T10:01:27;94761.75;;;25.93;44.75
61292;BME280;47165;42.664;23.368;2023-06-26T10:03:54;94770.53;;;25.42;45.19
61292;BME280;47165;42.664;23.368;2023-06-26T10:06:35;94769.31;;;25.30;45.97
61292;BME280;47165;42.664;23.368;2023-06-26T10:09:02;94762.22;;;25.67;45.69
61292;BME280;47165;42.664;23.368;2023-06-26T10:14:11;94762.75;;;25.92;44.42
61292;BME280;47165;42.664;23.368;2023-06-26T10:16:39;94757.59;;;25.91;45.33
61292;BME280;47165;42.664;23.368;2023-06-26T10:19:08;94757.03;;;25.95;43.89
61292;BME280;47165;42.664;23.368;2023-06-26T10:21:37;94760.88;;;26.07;43.28
61292;BME280;47165;42.664;23.368;2023-06-26T10:24:05;94762.16;;;26.12;43.80
61292;BME280;47165;42.664;23.368;2023-06-26T10:26:35;94758.13;;;26.01;43.47
61292;BME280;47165;42.664;23.368;2023-06-26T10:29:03;94765.66;;;26.12;44.16
61292;BME280;47165;42.664;23.368;2023-06-26T10:31:30;94757.91;;;26.17;44.29
61292;BME280;47165;42.664;23.368;2023-06-26T10:33:57;94757.09;;;27.09;41.35
61292;BME280;47165;42.664;23.368;2023-06-26T10:36:30;94756.25;;;27.37;40.71
61292;BME280;47165;42.664;23.368;2023-06-26T10:38:58;94763.75;;;26.92;42.42
61292;BME280;47165;42.664;23.368;2023-06-26T10:41:25;94761.72;;;26.51;42.01
61292;BME280;47165;42.664;23.368;2023-06-26T10:44:16;94755.69;;;26.42;42.26
61292;BME280;47165;42.664;23.368;2023-06-26T10:49:11;94757.50;;;26.20;41.58
61292;BME280;47165;42.664;23.368;2023-06-26T10:51:37;94758.38;;;26.06;41.69
61292;BME280;47165;42.664;23.368;2023-06-26T10:54:02;94752.50;;;25.96;43.27
61292;BME280;47165;42.664;23.368;2023-06-26T10:56:45;94743.06;;;26.00;41.87
61292;BME280;47165;42.664;23.368;2023-06-26T10:59:14;94745.13;;;25.98;42.24
61292;BME280;47165;42.664;23.368;2023-06-26T11:01:40;94739.19;;;25.87;43.12
61292;BME280;47165;42.664;23.368;2023-06-26T11:04:08;94738.00;;;26.05;44.27
61292;BME280;47165;42.664;23.368;2023-06-26T11:06:36;94744.53;;;26.17;44.12
61292;BME280;47165;42.664;23.368;2023-06-26T11:14:11;94736.84;;;25.93;43.98
61292;BME280;47165;42.664;23.368;2023-06-26T11:16:38;94741.19;;;26.15;42.46
61292;BME280;47165;42.664;23.368;2023-06-26T11:19:03;94744.13;;;26.20;43.03
61292;BME280;47165;42.664;23.368;2023-06-26T11:21:29;94745.47;;;26.31;42.53
61292;BME280;47165;42.664;23.368;2023-06-26T11:23:56;94742.66;;;26.39;42.69
61292;BME280;47165;42.664;23.368;2023-06-26T11:26:26;94731.69;;;26.77;42.87
61292;BME280;47165;42.664;23.368;2023-06-26T11:28:54;94732.88;;;26.96;42.65
61292;BME280;47165;42.664;23.368;2023-06-26T11:31:27;94729.38;;;27.24;42.54
61292;BME280;47165;42.664;23.368;2023-06-26T11:33:57;94729.59;;;27.29;40.40
61292;BME280;47165;42.664;23.368;2023-06-26T11:36:24;94731.91;;;27.32;40.66
61292;BME280;47165;42.664;23.368;2023-06-26T11:39:00;94720.38;;;27.38;40.84
61292;BME280;47165;42.664;23.368;2023-06-26T11:41:30;94717.25;;;27.83;40.66
61292;BME280;47165;42.664;23.368;2023-06-26T11:44:00;94726.00;;;27.92;39.74
61292;BME280;47165;42.664;23.368;2023-06-26T11:46:26;94717.97;;;27.92;39.18
61292;BME280;47165;42.664;23.368;2023-06-26T11:48:51;94715.81;;;27.80;39.19
61292;BME280;47165;42.664;23.368;2023-06-26T11:51:17;94719.34;;;27.39;39.17
61292;BME280;47165;42.664;23.368;2023-06-26T11:53:43;94713.13;;;27.32;39.99
61292;BME280;47165;42.664;23.368;2023-06-26T11:56:16;94724.06;;;27.37;39.16
61292;BME280;47165;42.664;23.368;2023-06-26T12:01:16;94725.13;;;27.08;40.72
61292;BME280;47165;42.664;23.368;2023-06-26T12:03:41;94718.28;;;27.34;39.26
61292;BME280;47165;42.664;23.368;2023-06-26T12:06:07;94721.19;;;27.32;40.09
61292;BME280;47165;42.664;23.368;2023-06-26T12:08:32;94718.84;;;27.64;40.02
61292;BME280;47165;42.664;23.368;2023-06-26T12:10:58;94716.81;;;27.73;39.87
61292;BME280;47165;42.664;23.368;2023-06-26T12:13:24;94730.00;;;27.61;40.00
61292;BME280;47165;42.664;23.368;2023-06-26T12:15:49;94716.22;;;27.36;39.05
61292;BME280;47165;42.664;23.368;2023-06-26T12:18:15;94710.53;;;27.52;39.08
61292;BME280;47165;42.664;23.368;2023-06-26T12:20:41;94713.91;;;28.29;38.49
61292;BME280;47165;42.664;23.368;2023-06-26T12:23:13;94697.63;;;28.91;37.34
61292;BME280;47165;42.664;23.368;2023-06-26T12:25:38;94705.88;;;29.09;37.02
61292;BME280;47165;42.664;23.368;2023-06-26T12:28:17;94707.56;;;29.17;36.58
61292;BME280;47165;42.664;23.368;2023-06-26T12:33:15;94706.47;;;29.38;34.82
61292;BME280;47165;42.664;23.368;2023-06-26T12:35:41;94706.59;;;29.63;34.44
61292;BME280;47165;42.664;23.368;2023-06-26T12:38:08;94706.69;;;30.33;33.78
61292;BME280;47165;42.664;23.368;2023-06-26T12:40:44;94698.38;;;30.66;32.60
61292;BME280;47165;42.664;23.368;2023-06-26T12:43:22;94704.75;;;30.47;32.48
61292;BME280;47165;42.664;23.368;2023-06-26T12:45:48;94701.75;;;30.87;32.42
61292;BME280;47165;42.664;23.368;2023-06-26T12:48:14;94703.91;;;31.03;33.63
61292;BME280;47165;42.664;23.368;2023-06-26T12:50:45;94708.38;;;30.84;33.29
61292;BME280;47165;42.664;23.368;2023-06-26T12:53:11;94704.69;;;30.22;34.88
61292;BME280;47165;42.664;23.368;2023-06-26T12:55:36;94710.06;;;29.83;35.42
61292;BME280;47165;42.664;23.368;2023-06-26T12:58:02;94712.50;;;29.20;36.09
61292;BME280;47165;42.664;23.368;2023-06-26T13:00:27;94718.31;;;28.77;37.72
61292;BME280;47165;42.664;23.368;2023-06-26T13:02:52;94714.41;;;28.59;37.29
61292;BME280;47165;42.664;23.368;2023-06-26T13:05:18;94712.09;;;28.96;37.67
61292;BME280;47165;42.664;23.368;2023-06-26T13:07:44;94725.75;;;28.75;37.11
61292;BME280;47165;42.664;23.368;2023-06-26T13:10:09;94711.25;;;28.49;38.45
61292;BME280;47165;42.664;23.368;2023-06-26T13:12:35;94711.84;;;28.38;38.18
61292;BME280;47165;42.664;23.368;2023-06-26T13:15:00;94712.94;;;28.50;39.20
61292;BME280;47165;42.664;23.368;2023-06-26T13:17:26;94709.19;;;28.91;37.98